Rippey, Iowa
Current Conditions -  °F | °C
As of 3:55 AM on Monday 22 Dec 2014 (Local Time) from KPRO Reporting Station
Haze Haze  
Wind Chill: 33°   Ceiling: 700
Heat Index: 40°   Visibility: 5mi
Dew Point: 40°   Wind: 14mph
Humidity: 97%   Direction: 160°SSE
Pressure: 29.66"   Gusts: NA
Location:  41.93°N, 94.2°W
Report Text: KPRO 220955Z AUTO 16012KT 5SM BR OVC007 05/04 A2966 RMK AO2 T00470043
Loading
Personal Weather Stations






























Interactive Weather Map New forecast layout! Learn more

10-Day Weather Forecast

Advertisements
Track Severe Weather on mobile